MSC Alexa — 3FPP6 — position and weather

sailwx.info

Track history (hours):
 
Tides and Currents Weather Stations Pressure Air Temp Water Temp Dewpoint Dewpoint Depression Visibility Wind Speed Wind Dir Waves Ship Positions

MSC Alexa

Last reported at 2015-Jul-30 01:24 UTC. Time now 2015-Jul-31 17:25 UTC.
Position N 49°50' W 001°02'.

Length 243 m; draft 11.3 m.

Type: Ship (hazmat cat D). MMSI: 356904000.

Date/timePositionNaut miles runAvg speedWind from/ knotsBaromVisibWave heightAir tempDewpointWater temp
2015-Jul-30 01:24N 49°50' W 001°02'1618.4
2015-Jul-30 00:33N 49°43' W 000°40'6 6.2
2015-Jul-29 23:33N 49°40' W 000°32'1616.2
2015-Jul-29 22:33N 49°32' W 000°10'1212.3
2015-Jul-29 21:33N 49°28' E 000°08'0 0.5
2015-Jul-29 20:33N 49°28' E 000°08'0 0.0
2015-Jul-29 19:33N 49°28' E 000°08'0 0.0
2015-Jul-29 18:33N 49°28' E 000°08'0 0.0
2015-Jul-29 17:33N 49°28' E 000°08'0 0.0
2015-Jul-29 16:33N 49°28' E 000°08'0 0.0
2015-Jul-29 15:33N 49°28' E 000°08'0 0.0
2015-Jul-29 14:33N 49°28' E 000°08'0 0.0
2015-Jul-29 13:33N 49°28' E 000°08'0 0.0
2015-Jul-29 12:33N 49°28' E 000°08'0 0.1
2015-Jul-29 11:33N 49°28' E 000°08'9 8.9
2015-Jul-29 10:33N 49°31' W 000°04'9 8.9
2015-Jul-29 09:33N 49°39' W 000°11'4915.9
2015-Jul-29 06:28N 50°28' W 000°02'1415.2
2015-Jul-29 05:33N 50°31' E 000°19'1616.0
2015-Jul-29 04:33N 50°38' E 000°42'1817.3
2015-Jul-29 03:32N 50°48' E 001°04'1717.7
2015-Jul-29 02:33N 50°59' E 001°25'1716.6
2015-Jul-29 01:33N 51°11' E 001°44'1615.7
2015-Jul-29 00:33N 51°24' E 001°57'1414.2
2015-Jul-28 23:33N 51°21' E 002°19'1514.9
2015-Jul-28 22:33N 51°23' E 002°43'1111.5
2015-Jul-28 21:33N 51°24' E 003°01'1312.6
2015-Jul-28 20:33N 51°25' E 003°21'1010.3
2015-Jul-28 19:33N 51°26' E 003°37'1010.2
2015-Jul-28 18:33N 51°21' E 003°51'8 8.4
2015-Jul-28 17:33N 51°22' E 004°04'8 8.1
2015-Jul-28 16:32N 51°21' E 004°17'0 0.3
2015-Jul-28 15:27N 51°21' E 004°18'2 1.7
2015-Jul-28 14:33N 51°20' E 004°19'1 0.8
2015-Jul-28 13:32N 51°20' E 004°21'0 0.0
2015-Jul-28 12:31N 51°20' E 004°21'0 0.0
2015-Jul-28 11:31N 51°20' E 004°21'0 0.0
2015-Jul-28 10:30N 51°20' E 004°21'0 0.0
2015-Jul-28 09:21N 51°20' E 004°21'0 0.0
2015-Jul-28 08:29N 51°20' E 004°21'0 0.0
2015-Jul-28 07:29N 51°20' E 004°21'0 0.0
2015-Jul-28 06:20N 51°20' E 004°21'0 0.0
2015-Jul-28 05:28N 51°20' E 004°21'0 0.0
2015-Jul-28 04:31N 51°20' E 004°21'0 0.0
2015-Jul-28 03:33N 51°20' E 004°21'0 0.0
2015-Jul-28 02:33N 51°20' E 004°21'0 0.0
2015-Jul-28 01:32N 51°20' E 004°21'0 0.0
2015-Jul-28 00:32N 51°20' E 004°21'0 0.0
2015-Jul-27 23:32N 51°20' E 004°21'0 0.0
2015-Jul-27 22:32N 51°20' E 004°21'0 0.0
2015-Jul-27 21:28N 51°20' E 004°21'0 0.0
2015-Jul-27 20:33N 51°20' E 004°21'0 0.0
2015-Jul-27 19:27N 51°20' E 004°21'0 0.0
2015-Jul-27 18:32N 51°20' E 004°21'0 0.0
2015-Jul-27 17:32N 51°20' E 004°21'0 0.0
2015-Jul-27 16:29N 51°20' E 004°21'0 0.0
2015-Jul-27 15:31N 51°20' E 004°21'0 0.0
2015-Jul-27 14:31N 51°20' E 004°21'0 0.0
2015-Jul-27 13:33N 51°20' E 004°21'1 0.8
2015-Jul-27 12:33N 51°20' E 004°19'2 1.8
2015-Jul-27 11:33N 51°21' E 004°17'0 0.4
2015-Jul-27 10:33N 51°21' E 004°16'8 8.3
2015-Jul-27 09:33N 51°22' E 004°04'9 8.6
2015-Jul-27 08:34N 51°21' E 003°50'1110.9
2015-Jul-27 07:33N 51°26' E 003°35'9 8.8
2015-Jul-27 06:33N 51°24' E 003°21'1413.7
2015-Jul-27 05:33N 51°26' E 002°59'13913.9
2015-Jul-26 19:34N 53°30' E 004°43'1818.4
2015-Jul-26 18:33N 53°37' E 005°13'1717.5
2015-Jul-26 17:34N 53°42' E 005°40'5016.8
2015-Jul-26 14:34N 53°56' E 007°03'1716.5
2015-Jul-26 13:34N 53°60' E 007°30'1514.6
2015-Jul-26 12:34N 53°52' E 007°51'1312.8
2015-Jul-26 11:33N 53°46' E 008°10'1413.9
2015-Jul-26 10:34N 53°37' E 008°28'4 3.5
2015-Jul-26 09:33N 53°35' E 008°32'0 0.0
2015-Jul-26 08:33N 53°35' E 008°32'0 0.0
2015-Jul-26 07:32N 53°35' E 008°32'0 0.0
2015-Jul-26 06:32N 53°35' E 008°32'0 0.0
2015-Jul-26 05:31N 53°35' E 008°32'0 0.0
2015-Jul-26 04:31N 53°35' E 008°32'0 0.0
2015-Jul-26 03:33N 53°35' E 008°32'0 0.0
2015-Jul-26 02:33N 53°35' E 008°32'0 0.0
2015-Jul-26 01:33N 53°35' E 008°32'0 0.0
2015-Jul-26 00:32N 53°35' E 008°32'0 0.0
2015-Jul-25 23:32N 53°35' E 008°32'0 0.0
2015-Jul-25 22:31N 53°35' E 008°32'0 0.0
2015-Jul-25 21:31N 53°35' E 008°32'0 0.0
2015-Jul-25 20:33N 53°35' E 008°32'0 0.0
2015-Jul-25 19:33N 53°35' E 008°32'0 0.0
2015-Jul-25 18:33N 53°35' E 008°32'0 0.0
2015-Jul-25 17:32N 53°35' E 008°32'0 0.0
2015-Jul-25 16:32N 53°35' E 008°32'0 0.0
2015-Jul-25 15:31N 53°35' E 008°32'0 0.0
2015-Jul-25 14:31N 53°35' E 008°32'0 0.0
2015-Jul-25 13:33N 53°35' E 008°32'0 0.0
2015-Jul-25 12:33N 53°35' E 008°32'0 0.0
2015-Jul-25 11:33N 53°35' E 008°32'0 0.0
2015-Jul-25 10:32N 53°35' E 008°32'0 0.0
2015-Jul-25 09:34N 53°35' E 008°32'4 4.0
2015-Jul-25 08:33N 53°38' E 008°28'1212.2
2015-Jul-25 07:33N 53°45' E 008°12'1212.4
2015-Jul-25 06:33N 53°52' E 007°54'5 5.2
2015-Jul-25 05:32N 53°54' E 007°46'0 0.1
2015-Jul-25 04:31N 53°54' E 007°46'0 0.0
2015-Jul-25 03:17N 53°54' E 007°46'0 0.0
2015-Jul-25 02:31N 53°54' E 007°46'0 0.0
2015-Jul-25 01:33N 53°54' E 007°46'0 0.1
2015-Jul-25 00:24N 53°54' E 007°46'0 0.0
2015-Jul-24 23:32N 53°54' E 007°46'0 0.0
2015-Jul-24 22:32N 53°54' E 007°46'0 0.0
2015-Jul-24 21:28N 53°54' E 007°46'0 0.0
2015-Jul-24 20:28N 53°54' E 007°46'0 0.0
2015-Jul-24 19:18N 53°54' E 007°46'0 0.0
2015-Jul-24 18:33N 53°54' E 007°46'0 0.0
2015-Jul-24 17:33N 53°54' E 007°46'0 0.1
2015-Jul-24 16:32N 53°54' E 007°46'0 0.0
2015-Jul-24 15:32N 53°54' E 007°46'0 0.1
2015-Jul-24 14:31N 53°54' E 007°46'0 0.0
2015-Jul-24 13:33N 53°54' E 007°46'0 0.1
2015-Jul-24 12:09N 53°54' E 007°46'0 0.2
2015-Jul-24 11:33N 53°54' E 007°46'0 0.1
2015-Jul-24 10:24N 53°54' E 007°46'0 0.1
2015-Jul-24 09:32N 53°54' E 007°46'0 0.0
2015-Jul-24 08:17N 53°54' E 007°46'0 0.0
2015-Jul-24 07:28N 53°54' E 007°46'0 0.0
2015-Jul-24 06:28N 53°54' E 007°46'0 0.1
2015-Jul-24 05:31N 53°54' E 007°46'2 2.0
2015-Jul-24 04:33N 53°55' E 007°43'5 5.2
2015-Jul-24 03:33N 53°59' E 007°37'1312.7
2015-Jul-24 02:33N 54°09' E 007°25'1514.9
2015-Jul-24 01:33N 54°24' E 007°22'1515.1
2015-Jul-24 00:33N 54°39' E 007°16'1515.3
2015-Jul-23 23:33N 54°53' E 007°09'1514.7
2015-Jul-23 22:33N 55°08' E 007°05'1514.7
2015-Jul-23 21:33N 55°22' E 006°60'18113.9
2015-Jul-23 08:33N 57°47' E 010°18'1313.5
2015-Jul-23 07:34N 57°49' E 010°43'1515.3
2015-Jul-23 06:33N 57°39' E 011°04'1615.9
2015-Jul-23 05:33N 57°28' E 011°25'1716.6
2015-Jul-23 04:33N 57°12' E 011°36'1616.4
2015-Jul-23 03:33N 56°57' E 011°45'1514.9
2015-Jul-23 02:34N 56°42' E 011°50'9014.9
2015-Jul-22 20:29N 55°15' E 011°05'1514.0
2015-Jul-22 19:25N 55°01' E 011°02'1213.9
2015-Jul-22 18:32N 54°50' E 010°52'1313.2
2015-Jul-22 17:33N 54°38' E 011°03'1515.1
2015-Jul-22 16:33N 54°32' E 011°26'1716.7
2015-Jul-22 15:33N 54°26' E 011°53'1414.3
2015-Jul-22 14:33N 54°33' E 012°15'1716.7
2015-Jul-22 13:33N 54°44' E 012°37'3316.7
2015-Jul-22 11:33N 54°57' E 013°30'1816.9
2015-Jul-22 10:31N 55°03' E 013°59'1516.0
2015-Jul-22 09:33N 55°13' E 014°18'1716.5
2015-Jul-22 08:33N 55°27' E 014°36'1616.3
2015-Jul-22 07:33N 55°33' E 015°02'1616.1
2015-Jul-22 06:33N 55°38' E 015°29'6616.5
2015-Jul-22 02:32N 55°56' E 017°23'3316.4
2015-Jul-22 00:32N 56°11' E 018°15'20815.9
2015-Jul-21 11:28N 59°08' E 021°38'1516.4
2015-Jul-21 10:33N 59°18' E 022°00'1716.4
2015-Jul-21 09:33N 59°28' E 022°26'1616.5
2015-Jul-21 08:33N 59°34' E 022°56'1716.7
2015-Jul-21 07:34N 59°39' E 023°28'1716.7
2015-Jul-21 06:33N 59°43' E 023°60'2016.9
2015-Jul-21 05:23N 59°48' E 024°38'1516.8
2015-Jul-21 04:29N 59°51' E 025°07'1616.8
2015-Jul-21 03:33N 59°54' E 025°38'1716.8
2015-Jul-21 02:33N 59°58' E 026°10'1616.2
2015-Jul-21 01:33N 60°01' E 026°42'1615.8
2015-Jul-21 00:33N 60°02' E 027°14'5115.2
2015-Jul-20 21:12N 60°02' E 028°56'1116.1
2015-Jul-20 20:30N 60°02' E 029°19'1011.0
2015-Jul-20 19:33N 59°60' E 029°39'1010.2
2015-Jul-20 18:33N 59°56' E 029°58'8 7.7
2015-Jul-20 17:33N 59°53' E 030°12'0 0.2
2015-Jul-20 16:33N 59°53' E 030°13'0 0.0
2015-Jul-20 15:32N 59°53' E 030°13'0 0.0
2015-Jul-20 14:32N 59°53' E 030°13'0 0.0
2015-Jul-20 13:31N 59°53' E 030°13'1 0.9
2015-Jul-20 12:32N 59°53' E 030°12'0 0.3
2015-Jul-20 11:31N 59°52' E 030°12'0 0.0
2015-Jul-20 10:31N 59°52' E 030°12'0 0.0
2015-Jul-20 09:33N 59°52' E 030°12'0 0.0
2015-Jul-20 08:30N 59°52' E 030°12'0 0.0
2015-Jul-20 07:32N 59°52' E 030°12'0 0.0
2015-Jul-20 06:32N 59°52' E 030°12'0 0.0
2015-Jul-20 05:32N 59°52' E 030°12'0 0.0
2015-Jul-20 04:31N 59°52' E 030°12'0 0.0
2015-Jul-20 03:31N 59°52' E 030°12'0 0.0
2015-Jul-20 02:33N 59°52' E 030°12'0 0.0
2015-Jul-20 01:33N 59°52' E 030°12'  
Track history (hours):
 
Tides and Currents Weather Stations Pressure Air Temp Water Temp Dewpoint Dewpoint Depression Visibility Wind Speed Wind Dir Waves Ship Positions

MSC Alexa

Last reported at 2015-Jul-30 01:24 UTC. Time now 2015-Jul-31 17:25 UTC.
Position N 49°50' W 001°02'.

Length 243 m; draft 11.3 m.

Type: Ship (hazmat cat D). MMSI: 356904000.

Date/timePositionNaut miles runAvg speedWind from/ knotsBaromVisibWave heightAir tempDewpointWater temp
2015-Jul-30 01:24N 49°50' W 001°02'1618.4
2015-Jul-30 00:33N 49°43' W 000°40'6 6.2
2015-Jul-29 23:33N 49°40' W 000°32'1616.2
2015-Jul-29 22:33N 49°32' W 000°10'1212.3
2015-Jul-29 21:33N 49°28' E 000°08'0 0.5
2015-Jul-29 20:33N 49°28' E 000°08'0 0.0
2015-Jul-29 19:33N 49°28' E 000°08'0 0.0
2015-Jul-29 18:33N 49°28' E 000°08'0 0.0
2015-Jul-29 17:33N 49°28' E 000°08'0 0.0
2015-Jul-29 16:33N 49°28' E 000°08'0 0.0
2015-Jul-29 15:33N 49°28' E 000°08'0 0.0
2015-Jul-29 14:33N 49°28' E 000°08'0 0.0
2015-Jul-29 13:33N 49°28' E 000°08'0 0.0
2015-Jul-29 12:33N 49°28' E 000°08'0 0.1
2015-Jul-29 11:33N 49°28' E 000°08'9 8.9
2015-Jul-29 10:33N 49°31' W 000°04'9 8.9
2015-Jul-29 09:33N 49°39' W 000°11'4915.9
2015-Jul-29 06:28N 50°28' W 000°02'1415.2
2015-Jul-29 05:33N 50°31' E 000°19'1616.0
2015-Jul-29 04:33N 50°38' E 000°42'1817.3
2015-Jul-29 03:32N 50°48' E 001°04'1717.7
2015-Jul-29 02:33N 50°59' E 001°25'1716.6
2015-Jul-29 01:33N 51°11' E 001°44'1615.7
2015-Jul-29 00:33N 51°24' E 001°57'1414.2
2015-Jul-28 23:33N 51°21' E 002°19'1514.9
2015-Jul-28 22:33N 51°23' E 002°43'1111.5
2015-Jul-28 21:33N 51°24' E 003°01'1312.6
2015-Jul-28 20:33N 51°25' E 003°21'1010.3
2015-Jul-28 19:33N 51°26' E 003°37'1010.2
2015-Jul-28 18:33N 51°21' E 003°51'8 8.4
2015-Jul-28 17:33N 51°22' E 004°04'8 8.1
2015-Jul-28 16:32N 51°21' E 004°17'0 0.3
2015-Jul-28 15:27N 51°21' E 004°18'2 1.7
2015-Jul-28 14:33N 51°20' E 004°19'1 0.8
2015-Jul-28 13:32N 51°20' E 004°21'0 0.0
2015-Jul-28 12:31N 51°20' E 004°21'0 0.0
2015-Jul-28 11:31N 51°20' E 004°21'0 0.0
2015-Jul-28 10:30N 51°20' E 004°21'0 0.0
2015-Jul-28 09:21N 51°20' E 004°21'0 0.0
2015-Jul-28 08:29N 51°20' E 004°21'0 0.0
2015-Jul-28 07:29N 51°20' E 004°21'0 0.0
2015-Jul-28 06:20N 51°20' E 004°21'0 0.0
2015-Jul-28 05:28N 51°20' E 004°21'0 0.0
2015-Jul-28 04:31N 51°20' E 004°21'0 0.0
2015-Jul-28 03:33N 51°20' E 004°21'0 0.0
2015-Jul-28 02:33N 51°20' E 004°21'0 0.0
2015-Jul-28 01:32N 51°20' E 004°21'0 0.0
2015-Jul-28 00:32N 51°20' E 004°21'0 0.0
2015-Jul-27 23:32N 51°20' E 004°21'0 0.0
2015-Jul-27 22:32N 51°20' E 004°21'0 0.0
2015-Jul-27 21:28N 51°20' E 004°21'0 0.0
2015-Jul-27 20:33N 51°20' E 004°21'0 0.0
2015-Jul-27 19:27N 51°20' E 004°21'0 0.0
2015-Jul-27 18:32N 51°20' E 004°21'0 0.0
2015-Jul-27 17:32N 51°20' E 004°21'0 0.0
2015-Jul-27 16:29N 51°20' E 004°21'0 0.0
2015-Jul-27 15:31N 51°20' E 004°21'0 0.0
2015-Jul-27 14:31N 51°20' E 004°21'0 0.0
2015-Jul-27 13:33N 51°20' E 004°21'1 0.8
2015-Jul-27 12:33N 51°20' E 004°19'2 1.8
2015-Jul-27 11:33N 51°21' E 004°17'0 0.4
2015-Jul-27 10:33N 51°21' E 004°16'8 8.3
2015-Jul-27 09:33N 51°22' E 004°04'9 8.6
2015-Jul-27 08:34N 51°21' E 003°50'1110.9
2015-Jul-27 07:33N 51°26' E 003°35'9 8.8
2015-Jul-27 06:33N 51°24' E 003°21'1413.7
2015-Jul-27 05:33N 51°26' E 002°59'13913.9
2015-Jul-26 19:34N 53°30' E 004°43'1818.4
2015-Jul-26 18:33N 53°37' E 005°13'1717.5
2015-Jul-26 17:34N 53°42' E 005°40'5016.8
2015-Jul-26 14:34N 53°56' E 007°03'1716.5
2015-Jul-26 13:34N 53°60' E 007°30'1514.6
2015-Jul-26 12:34N 53°52' E 007°51'1312.8
2015-Jul-26 11:33N 53°46' E 008°10'1413.9
2015-Jul-26 10:34N 53°37' E 008°28'4 3.5
2015-Jul-26 09:33N 53°35' E 008°32'0 0.0
2015-Jul-26 08:33N 53°35' E 008°32'0 0.0
2015-Jul-26 07:32N 53°35' E 008°32'0 0.0
2015-Jul-26 06:32N 53°35' E 008°32'0 0.0
2015-Jul-26 05:31N 53°35' E 008°32'0 0.0
2015-Jul-26 04:31N 53°35' E 008°32'0 0.0
2015-Jul-26 03:33N 53°35' E 008°32'0 0.0
2015-Jul-26 02:33N 53°35' E 008°32'0 0.0
2015-Jul-26 01:33N 53°35' E 008°32'0 0.0
2015-Jul-26 00:32N 53°35' E 008°32'0 0.0
2015-Jul-25 23:32N 53°35' E 008°32'0 0.0
2015-Jul-25 22:31N 53°35' E 008°32'0 0.0
2015-Jul-25 21:31N 53°35' E 008°32'0 0.0
2015-Jul-25 20:33N 53°35' E 008°32'0 0.0
2015-Jul-25 19:33N 53°35' E 008°32'0 0.0
2015-Jul-25 18:33N 53°35' E 008°32'0 0.0
2015-Jul-25 17:32N 53°35' E 008°32'0 0.0
2015-Jul-25 16:32N 53°35' E 008°32'0 0.0
2015-Jul-25 15:31N 53°35' E 008°32'0 0.0
2015-Jul-25 14:31N 53°35' E 008°32'0 0.0
2015-Jul-25 13:33N 53°35' E 008°32'0 0.0
2015-Jul-25 12:33N 53°35' E 008°32'0 0.0
2015-Jul-25 11:33N 53°35' E 008°32'0 0.0
2015-Jul-25 10:32N 53°35' E 008°32'0 0.0
2015-Jul-25 09:34N 53°35' E 008°32'4 4.0
2015-Jul-25 08:33N 53°38' E 008°28'1212.2
2015-Jul-25 07:33N 53°45' E 008°12'1212.4
2015-Jul-25 06:33N 53°52' E 007°54'5 5.2
2015-Jul-25 05:32N 53°54' E 007°46'0 0.1
2015-Jul-25 04:31N 53°54' E 007°46'0 0.0
2015-Jul-25 03:17N 53°54' E 007°46'0 0.0
2015-Jul-25 02:31N 53°54' E 007°46'0 0.0
2015-Jul-25 01:33N 53°54' E 007°46'0 0.1
2015-Jul-25 00:24N 53°54' E 007°46'0 0.0
2015-Jul-24 23:32N 53°54' E 007°46'0 0.0
2015-Jul-24 22:32N 53°54' E 007°46'0 0.0
2015-Jul-24 21:28N 53°54' E 007°46'0 0.0
2015-Jul-24 20:28N 53°54' E 007°46'0 0.0
2015-Jul-24 19:18N 53°54' E 007°46'0 0.0
2015-Jul-24 18:33N 53°54' E 007°46'0 0.0
2015-Jul-24 17:33N 53°54' E 007°46'0 0.1
2015-Jul-24 16:32N 53°54' E 007°46'0 0.0
2015-Jul-24 15:32N 53°54' E 007°46'0 0.1
2015-Jul-24 14:31N 53°54' E 007°46'0 0.0
2015-Jul-24 13:33N 53°54' E 007°46'0 0.1
2015-Jul-24 12:09N 53°54' E 007°46'0 0.2
2015-Jul-24 11:33N 53°54' E 007°46'0 0.1
2015-Jul-24 10:24N 53°54' E 007°46'0 0.1
2015-Jul-24 09:32N 53°54' E 007°46'0 0.0
2015-Jul-24 08:17N 53°54' E 007°46'0 0.0
2015-Jul-24 07:28N 53°54' E 007°46'0 0.0
2015-Jul-24 06:28N 53°54' E 007°46'0 0.1
2015-Jul-24 05:31N 53°54' E 007°46'2 2.0
2015-Jul-24 04:33N 53°55' E 007°43'5 5.2
2015-Jul-24 03:33N 53°59' E 007°37'1312.7
2015-Jul-24 02:33N 54°09' E 007°25'1514.9
2015-Jul-24 01:33N 54°24' E 007°22'1515.1
2015-Jul-24 00:33N 54°39' E 007°16'1515.3
2015-Jul-23 23:33N 54°53' E 007°09'1514.7
2015-Jul-23 22:33N 55°08' E 007°05'1514.7
2015-Jul-23 21:33N 55°22' E 006°60'18113.9
2015-Jul-23 08:33N 57°47' E 010°18'1313.5
2015-Jul-23 07:34N 57°49' E 010°43'1515.3
2015-Jul-23 06:33N 57°39' E 011°04'1615.9
2015-Jul-23 05:33N 57°28' E 011°25'1716.6
2015-Jul-23 04:33N 57°12' E 011°36'1616.4
2015-Jul-23 03:33N 56°57' E 011°45'1514.9
2015-Jul-23 02:34N 56°42' E 011°50'9014.9
2015-Jul-22 20:29N 55°15' E 011°05'1514.0
2015-Jul-22 19:25N 55°01' E 011°02'1213.9
2015-Jul-22 18:32N 54°50' E 010°52'1313.2
2015-Jul-22 17:33N 54°38' E 011°03'1515.1
2015-Jul-22 16:33N 54°32' E 011°26'1716.7
2015-Jul-22 15:33N 54°26' E 011°53'1414.3
2015-Jul-22 14:33N 54°33' E 012°15'1716.7
2015-Jul-22 13:33N 54°44' E 012°37'3316.7
2015-Jul-22 11:33N 54°57' E 013°30'1816.9
2015-Jul-22 10:31N 55°03' E 013°59'1516.0
2015-Jul-22 09:33N 55°13' E 014°18'1716.5
2015-Jul-22 08:33N 55°27' E 014°36'1616.3
2015-Jul-22 07:33N 55°33' E 015°02'1616.1
2015-Jul-22 06:33N 55°38' E 015°29'6616.5
2015-Jul-22 02:32N 55°56' E 017°23'3316.4
2015-Jul-22 00:32N 56°11' E 018°15'20815.9
2015-Jul-21 11:28N 59°08' E 021°38'1516.4
2015-Jul-21 10:33N 59°18' E 022°00'1716.4
2015-Jul-21 09:33N 59°28' E 022°26'1616.5
2015-Jul-21 08:33N 59°34' E 022°56'1716.7
2015-Jul-21 07:34N 59°39' E 023°28'1716.7
2015-Jul-21 06:33N 59°43' E 023°60'2016.9
2015-Jul-21 05:23N 59°48' E 024°38'1516.8
2015-Jul-21 04:29N 59°51' E 025°07'1616.8
2015-Jul-21 03:33N 59°54' E 025°38'1716.8
2015-Jul-21 02:33N 59°58' E 026°10'1616.2
2015-Jul-21 01:33N 60°01' E 026°42'1615.8
2015-Jul-21 00:33N 60°02' E 027°14'5115.2
2015-Jul-20 21:12N 60°02' E 028°56'1116.1
2015-Jul-20 20:30N 60°02' E 029°19'1011.0
2015-Jul-20 19:33N 59°60' E 029°39'1010.2
2015-Jul-20 18:33N 59°56' E 029°58'8 7.7
2015-Jul-20 17:33N 59°53' E 030°12'0 0.2
2015-Jul-20 16:33N 59°53' E 030°13'0 0.0
2015-Jul-20 15:32N 59°53' E 030°13'0 0.0
2015-Jul-20 14:32N 59°53' E 030°13'0 0.0
2015-Jul-20 13:31N 59°53' E 030°13'1 0.9
2015-Jul-20 12:32N 59°53' E 030°12'0 0.3
2015-Jul-20 11:31N 59°52' E 030°12'0 0.0
2015-Jul-20 10:31N 59°52' E 030°12'0 0.0
2015-Jul-20 09:33N 59°52' E 030°12'0 0.0
2015-Jul-20 08:30N 59°52' E 030°12'0 0.0
2015-Jul-20 07:32N 59°52' E 030°12'0 0.0
2015-Jul-20 06:32N 59°52' E 030°12'0 0.0
2015-Jul-20 05:32N 59°52' E 030°12'0 0.0
2015-Jul-20 04:31N 59°52' E 030°12'0 0.0
2015-Jul-20 03:31N 59°52' E 030°12'0 0.0
2015-Jul-20 02:33N 59°52' E 030°12'0 0.0
2015-Jul-20 01:33N 59°52' E 030°12'  

Dump ship's entire track history